createdAt,value
2022-08-17T00:00:43.757Z,99265.72
2022-08-17T00:03:31.962Z,99263.69
2022-08-17T00:06:04.760Z,99262.16
2022-08-17T00:08:39.117Z,99253.91
2022-08-17T00:11:11.698Z,99263.22
2022-08-17T00:13:46.234Z,99270.81
2022-08-17T00:16:22.573Z,99267.97
2022-08-17T00:19:13.291Z,99264.19
2022-08-17T00:22:32.714Z,99262.19
2022-08-17T00:24:36.055Z,99262.19
2022-08-17T00:27:04.311Z,99270.91
2022-08-17T00:29:32.771Z,99266.09
2022-08-17T00:33:10.958Z,99271.31
2022-08-17T00:34:51.801Z,99271.00
2022-08-17T00:37:20.371Z,99278.63
2022-08-17T00:39:48.530Z,99273.84
2022-08-17T00:42:18.816Z,99281.31
2022-08-17T00:44:47.484Z,99279.25
2022-08-17T00:47:15.697Z,99283.69
2022-08-17T00:49:43.761Z,99270.78
2022-08-17T00:52:16.907Z,99277.09
2022-08-17T00:54:49.120Z,99283.09
2022-08-17T00:57:21.727Z,99284.94
2022-08-17T01:00:03.009Z,99287.06
2022-08-17T01:02:41.332Z,99297.09
2022-08-17T01:05:19.101Z,99290.81
2022-08-17T01:07:53.338Z,99288.78
2022-08-17T01:11:00.003Z,99295.47
2022-08-17T01:13:16.228Z,99290.78
2022-08-17T01:15:52.407Z,99286.78
2022-08-17T01:18:21.683Z,99287.38
2022-08-17T01:20:52.966Z,99287.97
2022-08-17T01:23:24.284Z,99286.94
2022-08-17T01:25:59.584Z,99285.69
2022-08-17T01:28:33.414Z,99289.31
2022-08-17T01:31:19.969Z,99288.41
2022-08-17T01:33:48.649Z,99294.19
2022-08-17T01:36:16.749Z,99290.97
2022-08-17T01:38:44.981Z,99293.75
2022-08-17T01:41:16.824Z,99290.81
2022-08-17T01:43:49.661Z,99293.34
2022-08-17T01:46:32.186Z,99295.09
2022-08-17T01:49:01.438Z,99289.94
2022-08-17T01:51:33.101Z,99290.38
2022-08-17T01:54:14.790Z,99288.47
2022-08-17T01:56:48.126Z,99293.59
2022-08-17T01:59:18.361Z,99284.81
2022-08-17T02:01:48.020Z,99287.09
2022-08-17T02:04:16.983Z,99291.09
2022-08-17T02:06:53.162Z,99290.00
2022-08-17T02:09:25.903Z,99286.66
2022-08-17T02:11:56.522Z,99288.00
2022-08-17T02:14:26.028Z,99291.22
2022-08-17T02:16:54.293Z,99283.87
2022-08-17T02:19:23.065Z,99285.09
2022-08-17T02:21:55.587Z,99284.25
2022-08-17T02:25:00.386Z,99276.94
2022-08-17T02:27:18.032Z,99282.53
2022-08-17T02:29:47.162Z,99270.16
2022-08-17T02:32:28.027Z,99279.19
2022-08-17T02:34:58.110Z,99277.09
2022-08-17T02:37:28.311Z,99275.19
2022-08-17T02:39:58.383Z,99272.72
2022-08-17T02:42:34.904Z,99274.03
2022-08-17T02:45:06.134Z,99280.97
2022-08-17T02:47:35.010Z,99283.03
2022-08-17T02:50:06.666Z,99282.38
2022-08-17T02:53:01.376Z,99285.44
2022-08-17T02:55:37.862Z,99292.81
2022-08-17T02:58:07.661Z,99293.72
2022-08-17T03:00:42.568Z,99291.34
2022-08-17T03:03:13.518Z,99293.78
2022-08-17T03:05:41.932Z,99293.03
2022-08-17T03:08:13.375Z,99287.75
2022-08-17T03:10:43.377Z,99289.63
2022-08-17T03:13:14.784Z,99293.66
2022-08-17T03:15:47.553Z,99287.31
2022-08-17T03:18:25.695Z,99292.94
2022-08-17T03:20:56.749Z,99293.16
2022-08-17T03:23:25.463Z,99293.66
2022-08-17T03:25:54.672Z,99298.72
2022-08-17T03:28:24.225Z,99296.91
2022-08-17T03:30:52.651Z,99292.59
2022-08-17T03:33:23.232Z,99305.94
2022-08-17T03:35:52.126Z,99308.09
2022-08-17T03:38:21.352Z,99302.97
2022-08-17T03:40:58.542Z,99306.31
2022-08-17T03:43:32.729Z,99305.47
2022-08-17T03:46:33.877Z,99304.91
2022-08-17T03:49:31.660Z,99314.75
2022-08-17T03:52:18.640Z,99309.88
2022-08-17T03:55:05.874Z,99316.78
2022-08-17T03:57:34.136Z,99326.31
2022-08-17T04:00:04.703Z,99317.09
2022-08-17T04:02:42.289Z,99326.41
2022-08-17T04:05:10.885Z,99333.09
2022-08-17T04:07:39.009Z,99325.16
2022-08-17T04:10:09.703Z,99325.44
2022-08-17T04:12:46.493Z,99324.19
2022-08-17T04:15:15.635Z,99314.87
2022-08-17T04:17:44.715Z,99329.16
2022-08-17T04:20:19.160Z,99329.34
2022-08-17T04:23:02.720Z,99334.59
2022-08-17T04:25:34.380Z,99335.16
2022-08-17T04:28:04.345Z,99335.56
2022-08-17T04:30:38.066Z,99333.66
2022-08-17T04:33:09.523Z,99336.47
2022-08-17T04:35:39.542Z,99337.28
2022-08-17T04:38:10.847Z,99345.97
2022-08-17T04:40:57.632Z,99351.81
2022-08-17T04:43:28.152Z,99354.63
2022-08-17T04:46:00.636Z,99350.66
2022-08-17T04:48:36.858Z,99354.19
2022-08-17T04:51:11.544Z,99341.16
2022-08-17T04:53:40.814Z,99343.28
2022-08-17T04:56:16.092Z,99343.00
2022-08-17T04:58:49.888Z,99349.12
2022-08-17T05:01:24.032Z,99352.84
2022-08-17T05:03:54.951Z,99350.78
2022-08-17T05:06:23.836Z,99358.84
2022-08-17T05:08:52.358Z,99355.66
2022-08-17T05:11:22.144Z,99346.31
2022-08-17T05:13:50.529Z,99346.31
2022-08-17T05:16:20.565Z,99349.41
2022-08-17T05:18:49.716Z,99354.47
2022-08-17T05:21:20.186Z,99360.00
2022-08-17T05:23:54.729Z,99355.72
2022-08-17T05:26:26.679Z,99352.38
2022-08-17T05:28:59.564Z,99354.63
2022-08-17T05:31:29.618Z,99357.34
2022-08-17T05:33:58.681Z,99358.38
2022-08-17T05:36:41.786Z,99361.44
2022-08-17T05:39:16.114Z,99363.41
2022-08-17T05:41:48.272Z,99365.97
2022-08-17T05:44:17.283Z,99365.53
2022-08-17T05:46:50.877Z,99370.91
2022-08-17T05:49:27.312Z,99370.00
2022-08-17T05:53:00.373Z,99373.69
2022-08-17T05:55:55.761Z,99386.44
2022-08-17T05:58:33.646Z,99381.69
2022-08-17T06:01:20.196Z,99382.63
2022-08-17T06:04:16.607Z,99379.88
2022-08-17T06:06:58.737Z,99389.34
2022-08-17T06:09:46.120Z,99390.00
2022-08-17T06:12:48.263Z,99387.16
2022-08-17T06:16:04.678Z,99388.78
2022-08-17T06:19:02.029Z,99392.47
2022-08-17T06:21:36.224Z,99397.53
2022-08-17T06:24:43.339Z,99394.44
2022-08-17T06:27:38.828Z,99398.78
2022-08-17T06:30:15.510Z,99397.91
2022-08-17T06:32:46.299Z,99392.00
2022-08-17T06:35:31.846Z,99395.69
2022-08-17T06:38:37.144Z,99389.91
2022-08-17T06:41:12.517Z,99396.75
2022-08-17T06:44:03.937Z,99401.00
2022-08-17T06:46:39.197Z,99391.59
2022-08-17T06:49:16.758Z,99395.19
2022-08-17T06:51:54.688Z,99391.34
2022-08-17T06:54:52.137Z,99387.66
2022-08-17T06:57:28.584Z,99387.47
2022-08-17T07:00:16.568Z,99385.31
2022-08-17T07:02:57.580Z,99383.47
2022-08-17T07:05:32.751Z,99381.81
2022-08-17T07:08:16.828Z,99385.47
2022-08-17T07:10:51.523Z,99385.69
2022-08-17T07:13:38.246Z,99393.16
2022-08-17T07:16:21.969Z,99389.44
2022-08-17T07:18:53.194Z,99396.81
2022-08-17T07:21:47.394Z,99393.78
2022-08-17T07:24:30.918Z,99393.06
2022-08-17T07:27:11.879Z,99397.78
2022-08-17T07:29:57.220Z,99392.28
2022-08-17T07:32:41.535Z,99393.09
2022-08-17T07:35:22.325Z,99387.31
2022-08-17T07:38:25.835Z,99396.25
2022-08-17T07:40:58.230Z,99393.34
2022-08-17T07:43:35.390Z,99392.81
2022-08-17T07:46:41.232Z,99395.41
2022-08-17T07:49:09.539Z,99396.09
2022-08-17T07:51:54.557Z,99393.50
2022-08-17T07:54:37.851Z,99392.25
2022-08-17T07:57:30.235Z,99389.84
2022-08-17T07:59:59.655Z,99400.47
2022-08-17T08:02:40.397Z,99395.22
2022-08-17T08:05:49.162Z,99394.75
2022-08-17T08:08:30.252Z,99400.91
2022-08-17T08:11:28.395Z,99396.31
2022-08-17T08:14:20.776Z,99392.97
2022-08-17T08:17:09.362Z,99382.38
2022-08-17T08:19:38.907Z,99399.66
2022-08-17T08:22:22.328Z,99395.09
2022-08-17T08:24:57.723Z,99400.50
2022-08-17T08:27:48.759Z,99390.72
2022-08-17T08:30:21.507Z,99391.44
2022-08-17T08:33:05.665Z,99396.94
2022-08-17T08:35:44.508Z,99393.47
2022-08-17T08:38:27.337Z,99400.81
2022-08-17T08:41:18.122Z,99400.44
2022-08-17T08:44:59.536Z,99392.34
2022-08-17T08:47:48.671Z,99403.44
2022-08-17T08:50:38.728Z,99404.88
2022-08-17T08:53:23.618Z,99404.56
2022-08-17T08:55:54.727Z,99393.69
2022-08-17T08:58:50.765Z,99398.56
2022-08-17T09:01:27.794Z,99386.72
2022-08-17T09:04:19.959Z,99397.44
2022-08-17T09:07:36.747Z,99389.56
2022-08-17T09:10:19.855Z,99386.91
2022-08-17T09:13:22.127Z,99383.47
2022-08-17T09:15:59.440Z,99390.44
2022-08-17T09:19:03.478Z,99383.06
2022-08-17T09:21:48.742Z,99388.66
2022-08-17T09:24:40.112Z,99384.22
2022-08-17T09:27:16.261Z,99375.53
2022-08-17T09:29:59.028Z,99379.56
2022-08-17T09:32:41.871Z,99377.50
2022-08-17T09:35:19.427Z,99373.78
2022-08-17T09:37:59.565Z,99377.06
2022-08-17T09:40:38.892Z,99373.94
2022-08-17T09:43:31.110Z,99374.13
2022-08-17T09:46:09.024Z,99370.69
2022-08-17T09:48:57.517Z,99369.25
2022-08-17T09:51:35.092Z,99366.22
2022-08-17T09:54:37.083Z,99365.66
2022-08-17T09:57:29.803Z,99358.13
2022-08-17T10:00:15.680Z,99352.09
2022-08-17T10:02:54.455Z,99348.50
2022-08-17T10:05:39.646Z,99354.38
2022-08-17T10:08:44.703Z,99353.94
2022-08-17T10:11:33.598Z,99354.41
2022-08-17T10:14:37.887Z,99360.78
2022-08-17T10:17:11.407Z,99368.50
2022-08-17T10:19:56.373Z,99364.84
2022-08-17T10:23:46.900Z,99364.59
2022-08-17T10:26:23.957Z,99364.09
2022-08-17T10:29:06.977Z,99351.56
2022-08-17T10:31:49.703Z,99348.66
2022-08-17T10:34:55.369Z,99350.78
2022-08-17T10:37:49.474Z,99353.91
2022-08-17T10:40:30.598Z,99357.97
2022-08-17T10:43:20.105Z,99345.78
2022-08-17T10:46:31.253Z,99348.97
2022-08-17T10:49:11.746Z,99357.41
2022-08-17T10:51:42.185Z,99361.00
2022-08-17T10:54:47.330Z,99352.03
2022-08-17T10:57:27.463Z,99354.16
2022-08-17T11:00:14.783Z,99359.56
2022-08-17T11:02:52.773Z,99350.78
2022-08-17T11:05:47.335Z,99345.53
2022-08-17T11:08:24.639Z,99348.00
2022-08-17T11:10:58.021Z,99341.00
2022-08-17T11:13:56.154Z,99336.00
2022-08-17T11:16:40.527Z,99348.44
2022-08-17T11:19:39.633Z,99351.22
2022-08-17T11:22:11.162Z,99356.47
2022-08-17T11:24:51.519Z,99338.37
2022-08-17T11:27:34.308Z,99333.09
2022-08-17T11:30:13.167Z,99330.63
2022-08-17T11:32:48.701Z,99324.56
2022-08-17T11:35:21.251Z,99322.34
2022-08-17T11:38:46.174Z,99329.87
2022-08-17T11:41:52.122Z,99322.34
2022-08-17T11:44:59.623Z,99323.03
2022-08-17T11:48:27.385Z,99325.34
2022-08-17T11:51:25.559Z,99321.72
2022-08-17T11:54:08.670Z,99319.16
2022-08-17T11:56:47.336Z,99311.19
2022-08-17T11:59:34.013Z,99313.75
2022-08-17T12:02:35.024Z,99307.19
2022-08-17T12:05:21.173Z,99313.13
2022-08-17T12:08:15.270Z,99307.13
2022-08-17T12:11:02.508Z,99297.72
2022-08-17T12:13:39.694Z,99306.63
2022-08-17T12:16:16.721Z,99297.09
2022-08-17T12:18:58.037Z,99296.44
2022-08-17T12:21:37.989Z,99302.28
2022-08-17T12:24:23.594Z,99300.09
2022-08-17T12:27:04.537Z,99297.56
2022-08-17T12:29:38.594Z,99300.44
2022-08-17T12:32:17.887Z,99297.44
2022-08-17T12:34:48.557Z,99295.06
2022-08-17T12:37:21.801Z,99290.13
2022-08-17T12:39:53.554Z,99287.06
2022-08-17T12:42:29.631Z,99285.03
2022-08-17T12:44:58.305Z,99282.16
2022-08-17T12:47:30.090Z,99289.63
2022-08-17T12:50:28.260Z,99276.16
2022-08-17T12:53:02.719Z,99282.19
2022-08-17T12:55:37.103Z,99285.69
2022-08-17T12:58:08.950Z,99280.94
2022-08-17T13:00:47.540Z,99270.37
2022-08-17T13:03:25.538Z,99271.34
2022-08-17T13:06:12.096Z,99271.16
2022-08-17T13:08:47.678Z,99278.03
2022-08-17T13:11:18.642Z,99272.16
2022-08-17T13:13:54.300Z,99277.25
2022-08-17T13:16:26.850Z,99273.62
2022-08-17T13:19:16.575Z,99270.56
2022-08-17T13:22:04.275Z,99269.59
2022-08-17T13:24:37.864Z,99268.50
2022-08-17T13:27:10.276Z,99271.22
2022-08-17T13:29:51.185Z,99264.84
2022-08-17T13:32:33.623Z,99265.97
2022-08-17T13:35:28.249Z,99267.34
2022-08-17T13:38:05.550Z,99275.53
2022-08-17T13:40:44.948Z,99258.34
2022-08-17T13:43:48.586Z,99254.34
2022-08-17T13:46:28.570Z,99254.06
2022-08-17T13:49:06.122Z,99262.16
2022-08-17T13:51:46.370Z,99259.28
2022-08-17T13:54:26.438Z,99261.37
2022-08-17T13:57:01.394Z,99269.78
2022-08-17T13:59:54.370Z,99260.72
2022-08-17T14:02:25.994Z,99256.59
2022-08-17T14:04:58.488Z,99262.50
2022-08-17T14:07:32.251Z,99252.78
2022-08-17T14:10:15.542Z,99261.81
2022-08-17T14:12:45.345Z,99262.63
2022-08-17T14:15:16.996Z,99264.41
2022-08-17T14:17:45.320Z,99260.72
2022-08-17T14:20:16.497Z,99269.63
2022-08-17T14:22:49.670Z,99258.00
2022-08-17T14:25:25.132Z,99256.75
2022-08-17T14:27:54.327Z,99258.00
2022-08-17T14:30:26.986Z,99256.25
2022-08-17T14:32:58.627Z,99248.78
2022-08-17T14:35:28.921Z,99262.94
2022-08-17T14:37:57.708Z,99244.50
2022-08-17T14:40:26.204Z,99246.56
2022-08-17T14:42:57.887Z,99259.91
2022-08-17T14:45:31.528Z,99261.50
2022-08-17T14:48:07.967Z,99256.75
2022-08-17T14:50:37.486Z,99261.03
2022-08-17T14:53:08.359Z,99261.50
2022-08-17T14:55:39.883Z,99260.91
2022-08-17T14:58:09.158Z,99252.63
2022-08-17T15:00:39.043Z,99257.38
2022-08-17T15:03:07.223Z,99254.81
2022-08-17T15:05:38.136Z,99257.34
2022-08-17T15:08:06.792Z,99250.56
2022-08-17T15:10:36.072Z,99247.69
2022-08-17T15:13:05.103Z,99248.31
2022-08-17T15:15:33.320Z,99251.00
2022-08-17T15:18:03.996Z,99262.44
2022-08-17T15:20:33.442Z,99251.50
2022-08-17T15:23:02.004Z,99253.34
2022-08-17T15:25:32.366Z,99263.53
2022-08-17T15:28:01.436Z,99261.44
2022-08-17T15:30:30.800Z,99264.50
2022-08-17T15:33:00.660Z,99263.84
2022-08-17T15:35:32.668Z,99266.22
2022-08-17T15:38:10.748Z,99268.56
2022-08-17T15:40:48.548Z,99259.84
2022-08-17T15:43:27.310Z,99259.97
2022-08-17T15:46:00.438Z,99260.06
2022-08-17T15:48:41.416Z,99264.19
2022-08-17T15:51:17.044Z,99259.44
2022-08-17T15:53:53.576Z,99258.38
2022-08-17T15:56:22.840Z,99261.81
2022-08-17T15:58:51.777Z,99261.97
2022-08-17T16:03:13.737Z,99262.78
2022-08-17T16:04:26.830Z,99260.88
2022-08-17T16:07:00.344Z,99259.13
2022-08-17T16:09:30.106Z,99268.47
2022-08-17T16:11:58.383Z,99266.75
2022-08-17T16:14:32.533Z,99267.50
2022-08-17T16:17:04.981Z,99259.34
2022-08-17T16:19:53.065Z,99266.78
2022-08-17T16:22:39.396Z,99257.34
2022-08-17T16:25:14.451Z,99260.53
2022-08-17T16:27:43.567Z,99258.44
2022-08-17T16:30:17.729Z,99254.59
2022-08-17T16:32:48.566Z,99248.66
2022-08-17T16:35:17.163Z,99251.56
2022-08-17T16:37:45.823Z,99251.78
2022-08-17T16:40:17.424Z,99254.31
2022-08-17T16:42:48.422Z,99247.75
2022-08-17T16:45:20.698Z,99253.91
2022-08-17T16:47:50.285Z,99261.22
2022-08-17T16:50:22.035Z,99257.38
2022-08-17T16:52:51.258Z,99257.38
2022-08-17T16:55:21.763Z,99255.56
2022-08-17T16:57:50.885Z,99259.38
2022-08-17T17:00:21.003Z,99263.09
2022-08-17T17:02:49.752Z,99253.81
2022-08-17T17:05:57.781Z,99263.28
2022-08-17T17:08:53.851Z,99261.00
2022-08-17T17:11:31.446Z,99264.91
2022-08-17T17:14:03.976Z,99268.56
2022-08-17T17:16:45.111Z,99266.97
2022-08-17T17:19:34.708Z,99268.66
2022-08-17T17:22:10.087Z,99262.88
2022-08-17T17:24:49.976Z,99271.31
2022-08-17T17:27:23.879Z,99272.19
2022-08-17T17:30:05.162Z,99266.94
2022-08-17T17:32:41.006Z,99269.94
2022-08-17T17:35:32.442Z,99268.00
2022-08-17T17:38:12.408Z,99279.00
2022-08-17T17:40:47.802Z,99285.59
2022-08-17T17:43:38.451Z,99286.53
2022-08-17T17:46:27.560Z,99292.06
2022-08-17T17:48:58.337Z,99284.13
2022-08-17T17:52:06.537Z,99293.38
2022-08-17T17:54:34.459Z,99302.38
2022-08-17T17:57:26.937Z,99293.47
2022-08-17T18:00:15.194Z,99293.56
2022-08-17T18:03:20.955Z,99296.22
2022-08-17T18:06:18.682Z,99296.62
2022-08-17T18:09:09.053Z,99291.72
2022-08-17T18:11:54.115Z,99293.94
2022-08-17T18:14:30.276Z,99301.81
2022-08-17T18:17:00.315Z,99292.75
2022-08-17T18:19:30.751Z,99306.69
2022-08-17T18:22:15.721Z,99301.44
2022-08-17T18:24:48.215Z,99305.47
2022-08-17T18:27:36.946Z,99308.94
2022-08-17T18:30:12.674Z,99314.00
2022-08-17T18:32:46.454Z,99307.56
2022-08-17T18:35:14.745Z,99311.59
2022-08-17T18:38:14.565Z,99312.09
2022-08-17T18:40:45.616Z,99322.56
2022-08-17T18:43:43.951Z,99317.19
2022-08-17T18:46:28.417Z,99321.72
2022-08-17T18:49:01.507Z,99320.13
2022-08-17T18:51:39.895Z,99321.75
2022-08-17T18:54:23.417Z,99326.28
2022-08-17T18:56:59.181Z,99318.28
2022-08-17T18:59:47.234Z,99324.94
2022-08-17T19:05:31.721Z,99325.47
2022-08-17T19:08:22.481Z,99333.47
2022-08-17T19:11:01.296Z,99323.63
2022-08-17T19:13:36.047Z,99322.81
2022-08-17T19:16:19.090Z,99329.25
2022-08-17T19:19:13.520Z,99326.56
2022-08-17T19:21:47.357Z,99333.22
2022-08-17T19:24:22.498Z,99321.19
2022-08-17T19:26:56.742Z,99335.06
2022-08-17T19:29:37.186Z,99337.22
2022-08-17T19:32:09.511Z,99333.22
2022-08-17T19:34:39.743Z,99336.69
2022-08-17T19:37:32.412Z,99336.94
2022-08-17T19:40:24.403Z,99337.22
2022-08-17T19:43:28.827Z,99344.69
2022-08-17T19:46:10.786Z,99347.38
2022-08-17T19:49:16.044Z,99334.03
2022-08-17T19:52:00.142Z,99343.09
2022-08-17T19:54:40.130Z,99345.97
2022-08-17T19:57:41.401Z,99344.03
2022-08-17T20:00:15.651Z,99346.16
2022-08-17T20:02:54.552Z,99340.81
2022-08-17T20:06:12.084Z,99351.22
2022-08-17T20:08:59.517Z,99346.37
2022-08-17T20:11:51.573Z,99338.91
2022-08-17T20:14:25.054Z,99338.09
2022-08-17T20:16:53.281Z,99344.78
2022-08-17T20:19:25.089Z,99340.56
2022-08-17T20:22:03.836Z,99338.16
2022-08-17T20:24:45.332Z,99340.28
2022-08-17T20:27:21.753Z,99343.72
2022-08-17T20:30:05.738Z,99335.97
2022-08-17T20:32:57.062Z,99339.75
2022-08-17T20:35:38.646Z,99333.28
2022-08-17T20:38:11.066Z,99336.41
2022-08-17T20:40:54.645Z,99331.91
2022-08-17T20:43:33.611Z,99337.63
2022-08-17T20:46:26.731Z,99326.75
2022-08-17T20:49:16.818Z,99329.94
2022-08-17T20:52:21.345Z,99340.88
2022-08-17T20:54:53.715Z,99345.63
2022-08-17T20:57:31.553Z,99338.97
2022-08-17T21:00:16.758Z,99338.00
2022-08-17T21:02:49.605Z,99337.00
2022-08-17T21:05:34.364Z,99339.63
2022-08-17T21:08:17.867Z,99336.69
2022-08-17T21:10:47.332Z,99336.75
2022-08-17T21:13:15.957Z,99335.50
2022-08-17T21:15:59.014Z,99344.94
2022-08-17T21:18:54.840Z,99340.38
2022-08-17T21:21:34.716Z,99345.37
2022-08-17T21:24:19.385Z,99357.00
2022-08-17T21:27:25.117Z,99340.59
2022-08-17T21:30:06.697Z,99343.75
2022-08-17T21:32:42.145Z,99357.31
2022-08-17T21:35:19.865Z,99344.84
2022-08-17T21:37:53.316Z,99348.66
2022-08-17T21:40:26.900Z,99351.03
2022-08-17T21:43:05.108Z,99354.97
2022-08-17T21:45:38.065Z,99360.97
2022-08-17T21:48:09.357Z,99364.50
2022-08-17T21:50:40.604Z,99350.25
2022-08-17T21:53:13.854Z,99358.84
2022-08-17T21:55:42.369Z,99353.94
2022-08-17T21:58:28.987Z,99349.59
2022-08-17T22:01:11.322Z,99356.47
2022-08-17T22:03:41.268Z,99363.53
2022-08-17T22:06:38.173Z,99356.00
2022-08-17T22:09:39.077Z,99359.69
2022-08-17T22:12:22.350Z,99364.84
2022-08-17T22:15:02.478Z,99373.59
2022-08-17T22:17:36.578Z,99383.59
2022-08-17T22:20:14.498Z,99379.53
2022-08-17T22:23:06.875Z,99374.06
2022-08-17T22:25:41.861Z,99381.59
2022-08-17T22:28:12.353Z,99383.03
2022-08-17T22:31:14.479Z,99380.91
2022-08-17T22:33:49.439Z,99382.44
2022-08-17T22:36:37.229Z,99383.84
2022-08-17T22:39:08.458Z,99386.72
2022-08-17T22:42:00.873Z,99390.03
2022-08-17T22:44:37.618Z,99398.19
2022-08-17T22:47:38.938Z,99398.09
2022-08-17T22:50:22.202Z,99415.59
2022-08-17T22:53:22.038Z,99442.59
2022-08-17T22:56:13.815Z,99447.97
2022-08-17T22:59:08.529Z,99452.00
2022-08-17T23:01:38.413Z,99446.53
2022-08-17T23:04:13.387Z,99457.53
2022-08-17T23:06:44.414Z,99455.25
2022-08-17T23:09:12.999Z,99451.22
2022-08-17T23:11:49.442Z,99465.56
2022-08-17T23:14:20.707Z,99478.66
2022-08-17T23:16:50.443Z,99475.81
2022-08-17T23:19:21.685Z,99467.28
2022-08-17T23:21:52.810Z,99475.94
2022-08-17T23:24:33.108Z,99467.72
2022-08-17T23:27:02.441Z,99467.37
2022-08-17T23:29:31.160Z,99480.53
2022-08-17T23:32:01.439Z,99475.66
2022-08-17T23:34:30.179Z,99464.75
2022-08-17T23:36:58.633Z,99460.72
2022-08-17T23:39:27.603Z,99459.81
2022-08-17T23:41:59.130Z,99454.13
2022-08-17T23:44:28.889Z,99447.84
2022-08-17T23:46:57.509Z,99443.03
2022-08-17T23:49:26.002Z,99441.41
2022-08-17T23:51:55.230Z,99450.84
2022-08-17T23:54:34.504Z,99439.28
2022-08-17T23:57:04.864Z,99439.13
2022-08-17T23:59:33.905Z,99434.81
